Aviation Digital Data Service (ADDS)

Output produced by METARs form (0817 UTC 21 April 2015)
found at http://aviationweather.gov/adds/metars/
 
KINT 210542Z 2106/2206 28005KT P6SM SKC 
     FM211400 28013KT P6SM SKC